sensor_id;sensor_type;location;lat;lon;timestamp;pressure;altitude;pressure_sealevel;temperature;humidity
35443;BME280;21561;55.654;37.592;2023-05-01T00:01:04;98394.91;;;5.69;100.00
35443;BME280;21561;55.654;37.592;2023-05-01T00:03:31;98383.66;;;5.78;100.00
35443;BME280;21561;55.654;37.592;2023-05-01T00:05:59;98391.44;;;5.73;100.00
35443;BME280;21561;55.654;37.592;2023-05-01T00:08:26;98408.56;;;5.74;100.00
35443;BME280;21561;55.654;37.592;2023-05-01T00:10:53;98403.41;;;5.74;100.00
35443;BME280;21561;55.654;37.592;2023-05-01T00:13:20;98395.69;;;5.76;100.00
35443;BME280;21561;55.654;37.592;2023-05-01T00:15:49;98397.34;;;5.81;100.00
35443;BME280;21561;55.654;37.592;2023-05-01T00:18:16;98402.56;;;5.78;100.00
35443;BME280;21561;55.654;37.592;2023-05-01T00:20:43;98405.97;;;5.79;100.00
35443;BME280;21561;55.654;37.592;2023-05-01T00:23:09;98406.81;;;5.82;100.00
35443;BME280;21561;55.654;37.592;2023-05-01T00:25:37;98413.66;;;5.83;100.00
35443;BME280;21561;55.654;37.592;2023-05-01T00:28:04;98396.44;;;5.88;100.00
35443;BME280;21561;55.654;37.592;2023-05-01T00:30:31;98388.72;;;5.96;100.00
35443;BME280;21561;55.654;37.592;2023-05-01T00:32:59;98394.69;;;5.93;100.00
35443;BME280;21561;55.654;37.592;2023-05-01T00:35:27;98399.84;;;5.93;100.00
35443;BME280;21561;55.654;37.592;2023-05-01T00:37:54;98403.28;;;5.96;100.00
35443;BME280;21561;55.654;37.592;2023-05-01T00:40:21;98397.25;;;5.95;100.00
35443;BME280;21561;55.654;37.592;2023-05-01T00:42:48;98389.53;;;6.00;100.00
35443;BME280;21561;55.654;37.592;2023-05-01T00:45:14;98386.06;;;6.04;100.00
35443;BME280;21561;55.654;37.592;2023-05-01T00:47:41;98380.91;;;6.04;100.00
35443;BME280;21561;55.654;37.592;2023-05-01T00:50:08;98380.00;;;6.08;100.00
35443;BME280;21561;55.654;37.592;2023-05-01T00:52:35;98382.56;;;6.11;100.00
35443;BME280;21561;55.654;37.592;2023-05-01T00:55:01;98379.06;;;6.18;100.00
35443;BME280;21561;55.654;37.592;2023-05-01T00:57:31;98373.16;;;6.08;100.00
35443;BME280;21561;55.654;37.592;2023-05-01T00:59:57;98389.44;;;6.12;100.00
35443;BME280;21561;55.654;37.592;2023-05-01T01:02:24;98392.88;;;6.08;100.00
35443;BME280;21561;55.654;37.592;2023-05-01T01:04:52;98414.31;;;6.11;100.00
35443;BME280;21561;55.654;37.592;2023-05-01T01:07:21;98420.28;;;6.15;100.00
35443;BME280;21561;55.654;37.592;2023-05-01T01:12:44;98433.97;;;6.23;100.00
35443;BME280;21561;55.654;37.592;2023-05-01T01:15:17;98414.19;;;6.27;100.00
35443;BME280;21561;55.654;37.592;2023-05-01T01:17:54;98378.94;;;6.30;100.00
35443;BME280;21561;55.654;37.592;2023-05-01T01:28:15;98343.84;;;6.17;100.00
35443;BME280;21561;55.654;37.592;2023-05-01T01:36:18;98330.16;;;6.14;100.00
35443;BME280;21561;55.654;37.592;2023-05-01T01:38:45;98341.28;;;6.17;100.00
35443;BME280;21561;55.654;37.592;2023-05-01T01:41:19;98348.16;;;6.15;100.00
35443;BME280;21561;55.654;37.592;2023-05-01T01:43:49;98360.19;;;6.16;100.00
35443;BME280;21561;55.654;37.592;2023-05-01T01:46:17;98351.56;;;6.17;100.00
35443;BME280;21561;55.654;37.592;2023-05-01T01:48:46;98331.84;;;6.19;100.00
35443;BME280;21561;55.654;37.592;2023-05-01T01:51:15;98328.38;;;6.17;100.00
35443;BME280;21561;55.654;37.592;2023-05-01T01:53:48;98333.53;;;6.17;100.00
35443;BME280;21561;55.654;37.592;2023-05-01T01:56:17;98336.09;;;6.20;100.00
35443;BME280;21561;55.654;37.592;2023-05-01T01:58:45;98344.66;;;6.22;100.00
35443;BME280;21561;55.654;37.592;2023-05-01T02:01:12;98356.69;;;6.20;100.00
35443;BME280;21561;55.654;37.592;2023-05-01T02:03:41;98354.97;;;6.22;100.00
35443;BME280;21561;55.654;37.592;2023-05-01T02:06:09;98344.59;;;6.28;100.00
35443;BME280;21561;55.654;37.592;2023-05-01T02:08:37;98337.72;;;6.27;100.00
35443;BME280;21561;55.654;37.592;2023-05-01T02:11:03;98329.19;;;6.22;100.00
35443;BME280;21561;55.654;37.592;2023-05-01T02:13:30;98322.34;;;6.23;100.00
35443;BME280;21561;55.654;37.592;2023-05-01T02:16:19;98323.22;;;6.19;100.00
35443;BME280;21561;55.654;37.592;2023-05-01T02:18:47;98335.28;;;6.15;100.00
35443;BME280;21561;55.654;37.592;2023-05-01T02:21:15;98344.66;;;6.24;100.00
35443;BME280;21561;55.654;37.592;2023-05-01T02:23:42;98344.66;;;6.22;100.00
35443;BME280;21561;55.654;37.592;2023-05-01T02:26:11;98356.69;;;6.20;100.00
35443;BME280;21561;55.654;37.592;2023-05-01T02:28:38;98363.56;;;6.21;100.00
35443;BME280;21561;55.654;37.592;2023-05-01T02:31:09;98369.53;;;6.25;100.00
35443;BME280;21561;55.654;37.592;2023-05-01T02:33:36;98383.25;;;6.30;100.00
35443;BME280;21561;55.654;37.592;2023-05-01T02:36:03;98409.88;;;6.24;100.00
35443;BME280;21561;55.654;37.592;2023-05-01T02:38:30;98413.34;;;6.26;100.00
35443;BME280;21561;55.654;37.592;2023-05-01T02:40:57;98414.19;;;6.27;100.00
35443;BME280;21561;55.654;37.592;2023-05-01T02:43:26;98421.03;;;6.28;100.00
35443;BME280;21561;55.654;37.592;2023-05-01T02:45:54;98434.69;;;6.35;100.00
35443;BME280;21561;55.654;37.592;2023-05-01T02:48:22;98435.59;;;6.30;100.00
35443;BME280;21561;55.654;37.592;2023-05-01T02:50:50;98432.22;;;6.25;100.00
35443;BME280;21561;55.654;37.592;2023-05-01T02:53:17;98421.91;;;6.28;100.00
35443;BME280;21561;55.654;37.592;2023-05-01T02:55:44;98419.31;;;6.28;100.00
35443;BME280;21561;55.654;37.592;2023-05-01T02:58:14;98407.28;;;6.30;100.00
35443;BME280;21561;55.654;37.592;2023-05-01T03:00:41;98399.53;;;6.30;100.00
35443;BME280;21561;55.654;37.592;2023-05-01T03:03:08;98392.63;;;6.36;100.00
35443;BME280;21561;55.654;37.592;2023-05-01T03:05:35;98381.44;;;6.37;100.00
35443;BME280;21561;55.654;37.592;2023-05-01T03:08:01;98372.84;;;6.39;100.00
35443;BME280;21561;55.654;37.592;2023-05-01T03:10:29;98372.84;;;6.39;100.00
35443;BME280;21561;55.654;37.592;2023-05-01T03:12:55;98369.25;;;6.49;100.00
35443;BME280;21561;55.654;37.592;2023-05-01T03:15:22;98371.81;;;6.54;100.00
35443;BME280;21561;55.654;37.592;2023-05-01T03:17:49;98370.88;;;6.58;100.00
35443;BME280;21561;55.654;37.592;2023-05-01T03:20:15;98386.31;;;6.63;100.00
35443;BME280;21561;55.654;37.592;2023-05-01T03:22:42;98398.31;;;6.65;100.00
35443;BME280;21561;55.654;37.592;2023-05-01T03:25:09;98405.94;;;6.75;100.00
35443;BME280;21561;55.654;37.592;2023-05-01T03:27:36;98413.69;;;6.73;100.00
35443;BME280;21561;55.654;37.592;2023-05-01T03:30:02;98410.22;;;6.74;100.00
35443;BME280;21561;55.654;37.592;2023-05-01T03:32:30;98410.19;;;6.79;100.00
35443;BME280;21561;55.654;37.592;2023-05-01T03:34:57;98409.31;;;6.80;100.00
35443;BME280;21561;55.654;37.592;2023-05-01T03:37:24;98410.09;;;6.86;100.00
35443;BME280;21561;55.654;37.592;2023-05-01T03:39:51;98413.53;;;6.85;100.00
35443;BME280;21561;55.654;37.592;2023-05-01T03:42:18;98416.13;;;6.85;100.00
35443;BME280;21561;55.654;37.592;2023-05-01T03:44:45;98421.22;;;6.90;100.00
35443;BME280;21561;55.654;37.592;2023-05-01T03:47:11;98422.00;;;6.98;100.00
35443;BME280;21561;55.654;37.592;2023-05-01T03:49:38;98427.97;;;7.03;100.00
35443;BME280;21561;55.654;37.592;2023-05-01T03:52:04;98430.56;;;7.00;100.00
35443;BME280;21561;55.654;37.592;2023-05-01T03:54:31;98424.53;;;7.01;100.00
35443;BME280;21561;55.654;37.592;2023-05-01T03:56:58;98424.50;;;7.03;100.00
35443;BME280;21561;55.654;37.592;2023-05-01T03:59:25;98422.00;;;6.98;100.00
35443;BME280;21561;55.654;37.592;2023-05-01T04:01:52;98406.53;;;6.98;100.00
35443;BME280;21561;55.654;37.592;2023-05-01T04:04:19;98403.94;;;6.98;100.00
35443;BME280;21561;55.654;37.592;2023-05-01T04:06:46;98407.34;;;7.00;100.00
35443;BME280;21561;55.654;37.592;2023-05-01T04:09:15;98421.09;;;7.02;100.00
35443;BME280;21561;55.654;37.592;2023-05-01T04:11:41;98417.66;;;7.03;100.00
35443;BME280;21561;55.654;37.592;2023-05-01T04:14:08;98419.34;;;7.04;100.00
35443;BME280;21561;55.654;37.592;2023-05-01T04:16:34;98423.66;;;7.04;100.00
35443;BME280;21561;55.654;37.592;2023-05-01T04:19:01;98426.22;;;7.05;100.00
35443;BME280;21561;55.654;37.592;2023-05-01T04:21:28;98427.88;;;7.08;100.00
35443;BME280;21561;55.654;37.592;2023-05-01T04:23:54;98431.44;;;6.99;100.00
35443;BME280;21561;55.654;37.592;2023-05-01T04:26:21;98421.19;;;6.93;100.00
35443;BME280;21561;55.654;37.592;2023-05-01T04:28:48;98433.19;;;6.97;100.00
35443;BME280;21561;55.654;37.592;2023-05-01T04:31:16;98433.97;;;7.02;100.00
35443;BME280;21561;55.654;37.592;2023-05-01T04:33:42;98433.06;;;7.06;100.00
35443;BME280;21561;55.654;37.592;2023-05-01T04:36:09;98437.34;;;7.09;100.00
35443;BME280;21561;55.654;37.592;2023-05-01T04:38:36;98440.00;;;7.01;100.00
35443;BME280;21561;55.654;37.592;2023-05-01T04:41:03;98440.00;;;7.01;100.00
35443;BME280;21561;55.654;37.592;2023-05-01T04:43:30;98447.75;;;7.00;100.00
35443;BME280;21561;55.654;37.592;2023-05-01T04:45:57;98454.66;;;6.99;100.00
35443;BME280;21561;55.654;37.592;2023-05-01T04:48:23;98450.31;;;7.01;100.00
35443;BME280;21561;55.654;37.592;2023-05-01T04:50:50;98446.91;;;6.99;100.00
35443;BME280;21561;55.654;37.592;2023-05-01T04:53:16;98451.25;;;6.94;100.00
35443;BME280;21561;55.654;37.592;2023-05-01T04:55:43;98453.00;;;6.94;100.00
35443;BME280;21561;55.654;37.592;2023-05-01T04:58:09;98452.09;;;6.96;100.00
35443;BME280;21561;55.654;37.592;2023-05-01T05:00:36;98455.56;;;6.95;100.00
35443;BME280;21561;55.654;37.592;2023-05-01T05:03:02;98453.00;;;6.94;100.00
35443;BME280;21561;55.654;37.592;2023-05-01T05:05:30;98454.66;;;6.96;100.00
35443;BME280;21561;55.654;37.592;2023-05-01T05:07:56;98452.09;;;6.96;100.00
35443;BME280;21561;55.654;37.592;2023-05-01T05:10:23;98453.75;;;7.03;100.00
35443;BME280;21561;55.654;37.592;2023-05-01T05:12:50;98452.00;;;7.05;100.00
35443;BME280;21561;55.654;37.592;2023-05-01T05:15:16;98445.91;;;7.11;100.00
35443;BME280;21561;55.654;37.592;2023-05-01T05:17:43;98448.47;;;7.13;100.00
35443;BME280;21561;55.654;37.592;2023-05-01T05:20:11;98459.66;;;7.10;100.00
35443;BME280;21561;55.654;37.592;2023-05-01T05:22:37;98458.88;;;7.05;100.00
35443;BME280;21561;55.654;37.592;2023-05-01T05:25:04;98460.56;;;7.07;100.00
35443;BME280;21561;55.654;37.592;2023-05-01T05:27:32;98459.69;;;7.08;100.00
35443;BME280;21561;55.654;37.592;2023-05-01T05:30:03;98458.69;;;7.22;100.00
35443;BME280;21561;55.654;37.592;2023-05-01T05:32:31;98449.19;;;7.22;100.00
35443;BME280;21561;55.654;37.592;2023-05-01T05:34:58;98441.34;;;7.30;100.00
35443;BME280;21561;55.654;37.592;2023-05-01T05:37:24;98439.53;;;7.38;100.00
35443;BME280;21561;55.654;37.592;2023-05-01T05:39:51;98443.78;;;7.41;100.00
35443;BME280;21561;55.654;37.592;2023-05-01T05:42:18;98446.28;;;7.49;100.00
35443;BME280;21561;55.654;37.592;2023-05-01T05:44:45;98456.56;;;7.52;100.00
35443;BME280;21561;55.654;37.592;2023-05-01T05:47:11;98459.94;;;7.57;100.00
35443;BME280;21561;55.654;37.592;2023-05-01T05:49:38;98460.72;;;7.62;100.00
35443;BME280;21561;55.654;37.592;2023-05-01T05:52:04;98466.63;;;7.70;100.00
35443;BME280;21561;55.654;37.592;2023-05-01T05:54:31;98467.44;;;7.74;100.00
35443;BME280;21561;55.654;37.592;2023-05-01T05:56:58;98476.06;;;7.73;100.00
35443;BME280;21561;55.654;37.592;2023-05-01T05:59:24;98487.22;;;7.73;100.00
35443;BME280;21561;55.654;37.592;2023-05-01T06:01:51;98482.03;;;7.76;100.00
35443;BME280;21561;55.654;37.592;2023-05-01T06:04:17;98487.22;;;7.73;100.00
35443;BME280;21561;55.654;37.592;2023-05-01T06:06:44;98487.19;;;7.76;100.00
35443;BME280;21561;55.654;37.592;2023-05-01T06:09:11;98479.56;;;7.70;99.57
35443;BME280;21561;55.654;37.592;2023-05-01T06:11:38;98481.22;;;7.73;99.60
35443;BME280;21561;55.654;37.592;2023-05-01T06:14:05;98489.72;;;7.82;99.22
35443;BME280;21561;55.654;37.592;2023-05-01T06:16:32;98496.56;;;7.83;99.64
35443;BME280;21561;55.654;37.592;2023-05-01T06:18:59;98501.72;;;7.85;99.22
35443;BME280;21561;55.654;37.592;2023-05-01T06:21:26;98504.34;;;7.80;99.98
35443;BME280;21561;55.654;37.592;2023-05-01T06:23:53;98505.13;;;7.87;99.34
35443;BME280;21561;55.654;37.592;2023-05-01T06:26:19;98498.25;;;7.86;99.17
35443;BME280;21561;55.654;37.592;2023-05-01T06:28:47;98504.16;;;7.93;99.03
35443;BME280;21561;55.654;37.592;2023-05-01T06:31:13;98498.88;;;8.02;97.95
35443;BME280;21561;55.654;37.592;2023-05-01T06:33:40;98504.88;;;8.04;97.61
35443;BME280;21561;55.654;37.592;2023-05-01T06:36:06;98507.47;;;8.04;95.11
35443;BME280;21561;55.654;37.592;2023-05-01T06:38:33;98511.75;;;8.03;95.48
35443;BME280;21561;55.654;37.592;2023-05-01T06:41:00;98511.72;;;8.08;95.34
35443;BME280;21561;55.654;37.592;2023-05-01T06:43:26;98522.81;;;8.13;94.57
35443;BME280;21561;55.654;37.592;2023-05-01T06:45:56;98514.25;;;8.11;95.05
35443;BME280;21561;55.654;37.592;2023-05-01T06:48:22;98515.97;;;8.09;92.48
35443;BME280;21561;55.654;37.592;2023-05-01T06:50:49;98528.00;;;8.13;92.47
35443;BME280;21561;55.654;37.592;2023-05-01T06:53:15;98527.88;;;8.19;92.44
35443;BME280;21561;55.654;37.592;2023-05-01T06:55:42;98536.53;;;8.18;91.13
35443;BME280;21561;55.654;37.592;2023-05-01T06:58:08;98536.31;;;8.31;91.93
35443;BME280;21561;55.654;37.592;2023-05-01T07:00:49;98538.84;;;8.35;90.93
35443;BME280;21561;55.654;37.592;2023-05-01T07:03:16;98545.66;;;8.41;92.00
35443;BME280;21561;55.654;37.592;2023-05-01T07:05:42;98556.06;;;8.36;92.43
35443;BME280;21561;55.654;37.592;2023-05-01T07:08:09;98555.16;;;8.42;91.87
35443;BME280;21561;55.654;37.592;2023-05-01T07:10:36;98552.56;;;8.39;91.94
35443;BME280;21561;55.654;37.592;2023-05-01T07:13:06;98555.00;;;8.51;91.92
35443;BME280;21561;55.654;37.592;2023-05-01T07:15:33;98559.09;;;8.63;91.31
35443;BME280;21561;55.654;37.592;2023-05-01T07:18:00;98561.63;;;8.68;90.03
35443;BME280;21561;55.654;37.592;2023-05-01T07:20:28;98565.19;;;8.60;89.71
35443;BME280;21561;55.654;37.592;2023-05-01T07:22:55;98565.16;;;8.64;90.04
35443;BME280;21561;55.654;37.592;2023-05-01T07:25:22;98556.41;;;8.71;89.32
35443;BME280;21561;55.654;37.592;2023-05-01T07:27:50;98569.19;;;8.80;89.70
35443;BME280;21561;55.654;37.592;2023-05-01T07:30:16;98566.41;;;8.89;89.26
35443;BME280;21561;55.654;37.592;2023-05-01T07:32:43;98569.78;;;8.94;88.84
35443;BME280;21561;55.654;37.592;2023-05-01T07:35:10;98589.53;;;8.98;87.79
35443;BME280;21561;55.654;37.592;2023-05-01T07:37:37;98584.69;;;8.82;87.07
35443;BME280;21561;55.654;37.592;2023-05-01T07:40:03;98589.88;;;8.80;86.76
35443;BME280;21561;55.654;37.592;2023-05-01T07:42:30;98588.88;;;8.87;86.81
35443;BME280;21561;55.654;37.592;2023-05-01T07:44:57;98591.25;;;9.00;85.67
35443;BME280;21561;55.654;37.592;2023-05-01T07:47:23;98589.44;;;9.05;82.46
35443;BME280;21561;55.654;37.592;2023-05-01T07:49:50;98592.66;;;9.19;84.09
35443;BME280;21561;55.654;37.592;2023-05-01T07:52:17;98589.69;;;9.38;84.98
35443;BME280;21561;55.654;37.592;2023-05-01T07:54:47;98589.41;;;9.53;84.60
35443;BME280;21561;55.654;37.592;2023-05-01T07:57:14;98594.50;;;9.56;82.69
35443;BME280;21561;55.654;37.592;2023-05-01T07:59:40;98596.06;;;9.65;82.38
35443;BME280;21561;55.654;37.592;2023-05-01T08:02:07;98595.22;;;9.64;78.18
35443;BME280;21561;55.654;37.592;2023-05-01T08:04:34;98607.84;;;9.80;80.94
35443;BME280;21561;55.654;37.592;2023-05-01T08:07:00;98600.84;;;9.85;81.10
35443;BME280;21561;55.654;37.592;2023-05-01T08:09:27;98603.13;;;10.00;81.17
35443;BME280;21561;55.654;37.592;2023-05-01T08:11:53;98603.78;;;10.08;80.31
35443;BME280;21561;55.654;37.592;2023-05-01T08:14:20;98606.28;;;10.13;80.97
35443;BME280;21561;55.654;37.592;2023-05-01T08:16:47;98609.75;;;10.12;79.66
35443;BME280;21561;55.654;37.592;2023-05-01T08:19:19;98603.53;;;10.21;80.86
35443;BME280;21561;55.654;37.592;2023-05-01T08:21:46;98612.84;;;10.31;81.82
35443;BME280;21561;55.654;37.592;2023-05-01T08:24:13;98609.28;;;10.35;79.63
35443;BME280;21561;55.654;37.592;2023-05-01T08:26:39;98618.88;;;10.30;77.57
35443;BME280;21561;55.654;37.592;2023-05-01T08:29:06;98627.72;;;10.21;76.86
35443;BME280;21561;55.654;37.592;2023-05-01T08:31:32;98629.47;;;10.19;77.41
35443;BME280;21561;55.654;37.592;2023-05-01T08:34:03;98646.50;;;10.34;79.65
35443;BME280;21561;55.654;37.592;2023-05-01T08:36:29;98645.78;;;10.24;75.69
35443;BME280;21561;55.654;37.592;2023-05-01T08:38:58;98670.59;;;9.94;75.33
35443;BME280;21561;55.654;37.592;2023-05-01T08:41:25;98662.13;;;9.87;76.43
35443;BME280;21561;55.654;37.592;2023-05-01T08:43:53;98668.56;;;9.66;75.33
35443;BME280;21561;55.654;37.592;2023-05-01T08:46:28;98667.53;;;9.77;76.80
35443;BME280;21561;55.654;37.592;2023-05-01T08:48:58;98690.09;;;9.70;75.59
35443;BME280;21561;55.654;37.592;2023-05-01T08:51:25;98676.53;;;9.55;75.75
35443;BME280;21561;55.654;37.592;2023-05-01T08:53:54;98667.16;;;9.50;76.99
35443;BME280;21561;55.654;37.592;2023-05-01T08:56:22;98677.47;;;9.53;77.23
35443;BME280;21561;55.654;37.592;2023-05-01T08:58:50;98679.19;;;9.51;77.87
35443;BME280;21561;55.654;37.592;2023-05-01T09:01:17;98672.16;;;9.59;78.05
35443;BME280;21561;55.654;37.592;2023-05-01T09:03:45;98678.81;;;9.72;77.94
35443;BME280;21561;55.654;37.592;2023-05-01T09:06:13;98686.56;;;9.72;78.33
35443;BME280;21561;55.654;37.592;2023-05-01T09:08:40;98694.34;;;9.72;77.51
35443;BME280;21561;55.654;37.592;2023-05-01T09:11:06;98691.00;;;9.67;77.82
35443;BME280;21561;55.654;37.592;2023-05-01T09:13:35;98696.13;;;9.70;78.24
35443;BME280;21561;55.654;37.592;2023-05-01T09:16:03;98696.00;;;9.78;77.64
35443;BME280;21561;55.654;37.592;2023-05-01T09:18:29;98690.53;;;9.90;77.14
35443;BME280;21561;55.654;37.592;2023-05-01T09:20:56;98711.06;;;10.01;76.33
35443;BME280;21561;55.654;37.592;2023-05-01T09:23:23;98703.28;;;10.01;74.49
35443;BME280;21561;55.654;37.592;2023-05-01T09:25:50;98695.47;;;10.04;74.37
35443;BME280;21561;55.654;37.592;2023-05-01T09:28:17;98686.69;;;10.11;74.30
35443;BME280;21561;55.654;37.592;2023-05-01T09:30:44;98712.59;;;10.11;72.59
35443;BME280;21561;55.654;37.592;2023-05-01T09:33:11;98700.34;;;10.20;72.96
35443;BME280;21561;55.654;37.592;2023-05-01T09:35:52;98705.94;;;10.42;73.88
35443;BME280;21561;55.654;37.592;2023-05-01T09:38:19;98707.31;;;10.58;72.79
35443;BME280;21561;55.654;37.592;2023-05-01T09:40:46;98715.97;;;10.59;72.22
35443;BME280;21561;55.654;37.592;2023-05-01T09:43:15;98717.16;;;10.42;70.42
35443;BME280;21561;55.654;37.592;2023-05-01T09:51:30;98702.03;;;10.21;72.21
35443;BME280;21561;55.654;37.592;2023-05-01T09:53:59;98726.63;;;10.01;71.23
35443;BME280;21561;55.654;37.592;2023-05-01T09:56:26;98715.72;;;9.85;72.16
35443;BME280;21561;55.654;37.592;2023-05-01T09:58:53;98718.25;;;9.87;71.67
35443;BME280;21561;55.654;37.592;2023-05-01T10:01:35;98717.22;;;9.96;71.84
35443;BME280;21561;55.654;37.592;2023-05-01T10:04:02;98723.16;;;10.02;71.86
35443;BME280;21561;55.654;37.592;2023-05-01T10:06:29;98718.03;;;9.99;71.91
35443;BME280;21561;55.654;37.592;2023-05-01T10:08:57;98729.38;;;9.92;71.96
35443;BME280;21561;55.654;37.592;2023-05-01T10:11:23;98728.75;;;9.81;72.16
35443;BME280;21561;55.654;37.592;2023-05-01T10:14:08;98726.97;;;9.83;72.55
35443;BME280;21561;55.654;37.592;2023-05-01T10:16:36;98753.19;;;9.67;73.14
35443;BME280;21561;55.654;37.592;2023-05-01T10:19:03;98737.78;;;9.58;73.49
35443;BME280;21561;55.654;37.592;2023-05-01T10:21:30;98757.97;;;9.39;74.60
35443;BME280;21561;55.654;37.592;2023-05-01T10:23:59;98743.56;;;9.24;75.81
35443;BME280;21561;55.654;37.592;2023-05-01T10:26:27;98755.63;;;9.22;76.64
35443;BME280;21561;55.654;37.592;2023-05-01T10:28:54;98759.34;;;9.06;78.11
35443;BME280;21561;55.654;37.592;2023-05-01T10:31:20;98777.63;;;8.95;78.89
35443;BME280;21561;55.654;37.592;2023-05-01T10:33:47;98776.09;;;8.82;80.06
35443;BME280;21561;55.654;37.592;2023-05-01T10:36:24;98789.25;;;8.65;81.53
35443;BME280;21561;55.654;37.592;2023-05-01T10:38:51;98781.53;;;8.62;82.07
35443;BME280;21561;55.654;37.592;2023-05-01T10:41:47;98797.78;;;8.70;80.71
35443;BME280;21561;55.654;37.592;2023-05-01T10:44:21;98826.59;;;8.42;82.42
35443;BME280;21561;55.654;37.592;2023-05-01T10:46:48;98826.84;;;8.13;82.97
35443;BME280;21561;55.654;37.592;2023-05-01T10:49:15;98813.22;;;8.01;83.84
35443;BME280;21561;55.654;37.592;2023-05-01T10:52:00;98860.81;;;7.74;84.09
35443;BME280;21561;55.654;37.592;2023-05-01T10:54:31;98846.47;;;7.35;86.26
35443;BME280;21561;55.654;37.592;2023-05-01T10:57:00;98852.53;;;7.29;86.26
35443;BME280;21561;55.654;37.592;2023-05-01T11:02:21;98862.16;;;7.05;88.08
35443;BME280;21561;55.654;37.592;2023-05-01T11:04:49;98879.38;;;7.00;88.41
35443;BME280;21561;55.654;37.592;2023-05-01T11:07:17;98880.28;;;6.87;89.61
35443;BME280;21561;55.654;37.592;2023-05-01T11:09:51;98881.16;;;6.78;89.65
35443;BME280;21561;55.654;37.592;2023-05-01T11:15:08;98886.44;;;6.55;91.68
35443;BME280;21561;55.654;37.592;2023-05-01T11:20:05;98890.78;;;6.25;94.61
35443;BME280;21561;55.654;37.592;2023-05-01T11:22:32;98879.59;;;6.29;93.67
35443;BME280;21561;55.654;37.592;2023-05-01T11:24:59;98897.66;;;6.34;92.65
35443;BME280;21561;55.654;37.592;2023-05-01T11:27:27;98907.09;;;6.30;93.27
35443;BME280;21561;55.654;37.592;2023-05-01T11:29:54;98893.34;;;6.33;92.14
35443;BME280;21561;55.654;37.592;2023-05-01T11:32:23;98882.19;;;6.29;92.02
35443;BME280;21561;55.654;37.592;2023-05-01T11:34:50;98898.53;;;6.24;92.65
35443;BME280;21561;55.654;37.592;2023-05-01T11:37:17;98899.38;;;6.30;91.87
35443;BME280;21561;55.654;37.592;2023-05-01T11:39:47;98911.41;;;6.19;93.65
35443;BME280;21561;55.654;37.592;2023-05-01T11:42:14;98928.59;;;6.23;93.11
35443;BME280;21561;55.654;37.592;2023-05-01T11:44:41;98962.94;;;6.16;92.50
35443;BME280;21561;55.654;37.592;2023-05-01T11:47:07;98961.22;;;6.12;92.83
35443;BME280;21561;55.654;37.592;2023-05-01T11:49:34;98938.03;;;6.07;91.75
35443;BME280;21561;55.654;37.592;2023-05-01T11:52:01;98944.06;;;6.02;91.81
35443;BME280;21561;55.654;37.592;2023-05-01T11:54:27;98945.78;;;6.00;91.95
35443;BME280;21561;55.654;37.592;2023-05-01T11:56:57;98952.59;;;5.91;93.18
35443;BME280;21561;55.654;37.592;2023-05-01T11:59:27;98950.91;;;5.90;93.31
35443;BME280;21561;55.654;37.592;2023-05-01T12:01:54;98959.47;;;5.83;93.60
35443;BME280;21561;55.654;37.592;2023-05-01T12:04:25;98938.88;;;5.83;92.71
35443;BME280;21561;55.654;37.592;2023-05-01T12:06:57;98951.75;;;5.94;92.18
35443;BME280;21561;55.654;37.592;2023-05-01T12:09:24;98959.47;;;5.83;94.81
35443;BME280;21561;55.654;37.592;2023-05-01T12:11:52;98968.06;;;5.85;93.16
35443;BME280;21561;55.654;37.592;2023-05-01T12:14:19;98980.91;;;5.81;94.44
35443;BME280;21561;55.654;37.592;2023-05-01T12:16:49;98985.16;;;5.65;95.95
35443;BME280;21561;55.654;37.592;2023-05-01T12:19:17;98986.03;;;5.64;96.08
35443;BME280;21561;55.654;37.592;2023-05-01T12:21:45;98995.41;;;5.46;97.99
35443;BME280;21561;55.654;37.592;2023-05-01T12:24:15;99001.38;;;5.38;97.59
35443;BME280;21561;55.654;37.592;2023-05-01T12:26:44;98996.22;;;5.27;98.78
35443;BME280;21561;55.654;37.592;2023-05-01T12:29:11;99007.34;;;5.23;99.70
35443;BME280;21561;55.654;37.592;2023-05-01T12:31:44;99012.47;;;5.20;98.82
35443;BME280;21561;55.654;37.592;2023-05-01T12:34:11;99010.66;;;5.00;100.00
35443;BME280;21561;55.654;37.592;2023-05-01T12:36:38;98998.72;;;5.08;99.25
35443;BME280;21561;55.654;37.592;2023-05-01T12:39:08;99015.88;;;5.15;98.23
35443;BME280;21561;55.654;37.592;2023-05-01T12:44:24;99017.63;;;5.20;97.78
35443;BME280;21561;55.654;37.592;2023-05-01T12:46:53;99047.63;;;5.21;96.62
35443;BME280;21561;55.654;37.592;2023-05-01T12:49:20;99061.34;;;5.21;96.45
35443;BME280;21561;55.654;37.592;2023-05-01T12:51:48;99017.66;;;5.29;95.86
35443;BME280;21561;55.654;37.592;2023-05-01T12:54:21;99032.19;;;5.19;96.39
35443;BME280;21561;55.654;37.592;2023-05-01T12:56:49;99017.63;;;5.23;96.44
35443;BME280;21561;55.654;37.592;2023-05-01T13:01:47;99049.31;;;5.12;99.11
35443;BME280;21561;55.654;37.592;2023-05-01T13:04:20;99048.44;;;5.16;99.16
35443;BME280;21561;55.654;37.592;2023-05-01T13:06:47;99063.91;;;5.20;97.89
35443;BME280;21561;55.654;37.592;2023-05-01T13:09:14;99065.56;;;5.08;99.04
35443;BME280;21561;55.654;37.592;2023-05-01T13:11:42;99074.13;;;5.07;98.00
35443;BME280;21561;55.654;37.592;2023-05-01T13:14:21;99075.84;;;5.05;97.59
35443;BME280;21561;55.654;37.592;2023-05-01T13:16:48;99046.69;;;5.08;97.40
35443;BME280;21561;55.654;37.592;2023-05-01T13:19:28;99062.13;;;5.09;96.96
35443;BME280;21561;55.654;37.592;2023-05-01T13:21:56;99076.72;;;5.10;97.56
35443;BME280;21561;55.654;37.592;2023-05-01T13:24:47;99087.03;;;5.15;97.44
35443;BME280;21561;55.654;37.592;2023-05-01T13:27:12;99082.72;;;5.12;97.53
35443;BME280;21561;55.654;37.592;2023-05-01T13:29:39;99073.31;;;5.16;97.26
35443;BME280;21561;55.654;37.592;2023-05-01T13:32:11;99094.00;;;5.31;96.28
35443;BME280;21561;55.654;37.592;2023-05-01T13:34:41;99092.28;;;5.32;96.16